createdAt,value
2022-10-21T00:02:00.871Z,100523.45
2022-10-21T00:04:27.750Z,100517.92
2022-10-21T00:06:54.616Z,100513.94
2022-10-21T00:09:21.778Z,100514.66
2022-10-21T00:11:48.665Z,100507.67
2022-10-21T00:14:15.716Z,100498.96
2022-10-21T00:16:42.685Z,100496.48
2022-10-21T00:19:09.606Z,100492.27
2022-10-21T00:21:37.328Z,100489.80
2022-10-21T00:24:04.475Z,100477.07
2022-10-21T00:26:34.969Z,100488.23
2022-10-21T00:29:04.707Z,100492.45
2022-10-21T00:31:33.369Z,100499.59
2022-10-21T00:34:00.259Z,100515.95
2022-10-21T00:36:27.195Z,100515.27
2022-10-21T00:38:56.284Z,100510.95
2022-10-21T00:41:23.294Z,100508.00
2022-10-21T00:44:06.151Z,100497.56
2022-10-21T00:46:32.965Z,100486.31
2022-10-21T00:49:03.437Z,100479.54
2022-10-21T00:51:31.125Z,100469.97
2022-10-21T00:53:59.057Z,100450.10
2022-10-21T00:56:30.685Z,100445.05
2022-10-21T00:59:00.168Z,100440.31
2022-10-21T01:01:27.398Z,100439.09
2022-10-21T01:03:54.341Z,100444.66
2022-10-21T01:06:23.737Z,100457.38
2022-10-21T01:08:54.491Z,100465.92
2022-10-21T01:11:22.908Z,100451.69
2022-10-21T01:14:20.578Z,100446.27
2022-10-21T01:16:53.536Z,100449.18
2022-10-21T01:19:47.788Z,100453.31
2022-10-21T01:22:52.344Z,100451.05
2022-10-21T01:25:53.079Z,100449.70
2022-10-21T01:29:00.683Z,100456.31
2022-10-21T01:31:33.816Z,100448.47
2022-10-21T01:34:14.697Z,100452.98
2022-10-21T01:37:08.227Z,100445.48
2022-10-21T01:39:36.991Z,100438.83
2022-10-21T01:42:42.526Z,100433.43
2022-10-21T01:45:18.300Z,100426.88
2022-10-21T01:47:53.613Z,100415.91
2022-10-21T01:50:26.858Z,100406.70
2022-10-21T01:53:05.914Z,100399.37
2022-10-21T01:55:35.051Z,100398.96
2022-10-21T01:58:06.472Z,100404.52
2022-10-21T02:00:36.355Z,100394.80
2022-10-21T02:03:10.819Z,100392.21
2022-10-21T02:05:38.049Z,100392.21
2022-10-21T02:08:05.215Z,100390.84
2022-10-21T02:10:38.437Z,100380.92
2022-10-21T02:13:09.468Z,100371.50
2022-10-21T02:15:38.933Z,100379.30
2022-10-21T02:18:17.610Z,100380.36
2022-10-21T02:20:45.042Z,100373.41
2022-10-21T02:23:15.355Z,100366.14
2022-10-21T02:25:45.784Z,100364.96
2022-10-21T02:28:13.637Z,100360.95
2022-10-21T02:31:08.463Z,100358.52
2022-10-21T02:33:54.259Z,100357.09
2022-10-21T02:36:27.123Z,100356.73
2022-10-21T02:39:02.218Z,100350.15
2022-10-21T02:41:31.932Z,100344.23
2022-10-21T02:44:02.260Z,100340.75
2022-10-21T02:46:41.588Z,100336.40
2022-10-21T02:49:08.827Z,100327.84
2022-10-21T02:51:36.051Z,100326.92
2022-10-21T02:54:03.131Z,100334.74
2022-10-21T02:59:02.080Z,100327.12
2022-10-21T03:01:29.070Z,100330.64
2022-10-21T03:03:55.966Z,100337.10
2022-10-21T03:06:23.814Z,100336.96
2022-10-21T03:08:50.826Z,100334.36
2022-10-21T03:11:18.015Z,100330.86
2022-10-21T03:13:45.003Z,100329.80
2022-10-21T03:16:11.949Z,100321.10
2022-10-21T03:18:38.790Z,100307.55
2022-10-21T03:21:05.816Z,100300.27
2022-10-21T03:23:33.154Z,100296.97
2022-10-21T03:25:59.987Z,100292.62
2022-10-21T03:28:27.408Z,100294.19
2022-10-21T03:30:54.476Z,100299.92
2022-10-21T03:33:21.407Z,100309.17
2022-10-21T03:35:48.236Z,100313.02
2022-10-21T03:38:15.067Z,100311.86
2022-10-21T03:40:41.865Z,100310.81
2022-10-21T03:43:08.728Z,100305.96
2022-10-21T03:45:35.674Z,100308.04
2022-10-21T03:48:02.727Z,100302.80
2022-10-21T03:50:29.590Z,100297.23
2022-10-21T03:52:56.521Z,100283.85
2022-10-21T03:55:24.743Z,100270.81
2022-10-21T03:57:52.706Z,100265.24
2022-10-21T04:00:19.946Z,100261.77
2022-10-21T04:02:46.937Z,100259.49
2022-10-21T04:05:14.766Z,100253.75
2022-10-21T04:07:41.956Z,100253.40
2022-10-21T04:10:10.156Z,100254.64
2022-10-21T04:12:37.928Z,100253.28
2022-10-21T04:15:06.590Z,100256.46
2022-10-21T04:17:33.628Z,100251.63
2022-10-21T04:20:00.577Z,100255.80
2022-10-21T04:22:27.576Z,100249.36
2022-10-21T04:24:54.454Z,100246.21
2022-10-21T04:27:21.500Z,100253.01
2022-10-21T04:29:48.354Z,100253.02
2022-10-21T04:32:15.181Z,100257.05
2022-10-21T04:34:42.394Z,100258.30
2022-10-21T04:37:09.367Z,100253.80
2022-10-21T04:39:36.497Z,100253.45
2022-10-21T04:42:03.777Z,100249.26
2022-10-21T04:44:30.670Z,100250.64
2022-10-21T04:46:57.665Z,100247.50
2022-10-21T04:49:24.598Z,100242.84
2022-10-21T04:51:51.488Z,100235.73
2022-10-21T04:54:18.486Z,100225.49
2022-10-21T04:56:45.394Z,100214.53
2022-10-21T04:59:12.356Z,100211.20
2022-10-21T05:01:39.428Z,100209.27
2022-10-21T05:04:06.968Z,100207.20
2022-10-21T05:06:33.870Z,100204.61
2022-10-21T05:09:01.255Z,100198.17
2022-10-21T05:11:28.344Z,100193.67
2022-10-21T05:13:55.186Z,100190.59
2022-10-21T05:16:23.679Z,100188.69
2022-10-21T05:18:50.600Z,100184.50
2022-10-21T05:21:17.466Z,100179.09
2022-10-21T05:23:44.359Z,100174.71
2022-10-21T05:26:11.306Z,100172.95
2022-10-21T05:28:38.234Z,100169.30
2022-10-21T05:31:05.167Z,100162.14
2022-10-21T05:33:32.006Z,100161.27
2022-10-21T05:36:01.553Z,100155.50
2022-10-21T05:38:29.202Z,100154.60
2022-10-21T05:40:56.526Z,100146.71
2022-10-21T05:43:24.209Z,100145.11
2022-10-21T05:45:51.060Z,100139.52
2022-10-21T05:48:18.114Z,100145.81
2022-10-21T05:50:46.027Z,100145.30
2022-10-21T05:53:13.785Z,100142.56
2022-10-21T05:55:40.662Z,100135.43
2022-10-21T05:58:07.737Z,100131.23
2022-10-21T06:00:34.747Z,100132.42
2022-10-21T06:03:01.944Z,100126.84
2022-10-21T06:05:28.854Z,100128.56
2022-10-21T06:07:55.914Z,100127.00
2022-10-21T06:10:26.653Z,100126.51
2022-10-21T06:12:55.988Z,100122.32
2022-10-21T06:15:23.309Z,100121.13
2022-10-21T06:17:51.433Z,100124.60
2022-10-21T06:20:18.530Z,100128.77
2022-10-21T06:22:45.430Z,100148.10
2022-10-21T06:25:12.570Z,100160.86
2022-10-21T06:27:40.093Z,100159.00
2022-10-21T06:30:07.639Z,100156.09
2022-10-21T06:32:35.201Z,100151.05
2022-10-21T06:35:02.229Z,100145.16
2022-10-21T06:37:29.360Z,100147.09
2022-10-21T06:39:56.456Z,100151.96
2022-10-21T06:42:23.332Z,100157.54
2022-10-21T06:44:50.270Z,100145.39
2022-10-21T06:47:17.159Z,100142.79
2022-10-21T06:49:44.330Z,100138.46
2022-10-21T06:52:11.177Z,100129.44
2022-10-21T06:54:38.203Z,100132.23
2022-10-21T06:57:05.145Z,100117.44
2022-10-21T06:59:32.134Z,100118.85
2022-10-21T07:02:00.716Z,100121.48
2022-10-21T07:04:28.788Z,100120.82
2022-10-21T07:06:55.952Z,100119.83
2022-10-21T07:09:22.939Z,100115.67
2022-10-21T07:11:49.865Z,100121.25
2022-10-21T07:14:16.750Z,100125.26
2022-10-21T07:16:43.873Z,100124.39
2022-10-21T07:19:11.096Z,100121.60
2022-10-21T07:21:38.208Z,100124.20
2022-10-21T07:24:05.302Z,100131.07
2022-10-21T07:26:33.985Z,100127.45
2022-10-21T07:29:01.643Z,100126.62
2022-10-21T07:31:33.253Z,100125.95
2022-10-21T07:34:01.372Z,100126.14
2022-10-21T07:36:31.364Z,100119.36
2022-10-21T07:39:02.118Z,100121.48
2022-10-21T07:41:32.150Z,100126.23
2022-10-21T07:43:59.731Z,100128.56
2022-10-21T07:46:27.042Z,100121.64
2022-10-21T07:48:54.996Z,100120.80
2022-10-21T07:51:28.454Z,100117.00
2022-10-21T07:54:00.456Z,100118.06
2022-10-21T07:56:31.238Z,100124.88
2022-10-21T07:58:59.019Z,100124.04
2022-10-21T08:01:26.080Z,100126.34
2022-10-21T08:03:55.077Z,100125.33
2022-10-21T08:06:23.672Z,100123.98
2022-10-21T08:08:51.113Z,100124.88
2022-10-21T08:11:29.514Z,100117.92
2022-10-21T08:13:57.333Z,100127.70
2022-10-21T08:16:24.991Z,100129.31
2022-10-21T08:18:52.847Z,100133.58
2022-10-21T08:21:20.469Z,100131.55
2022-10-21T08:23:47.868Z,100129.66
2022-10-21T08:26:15.634Z,100120.27
2022-10-21T08:28:42.993Z,100113.52
2022-10-21T08:31:16.507Z,100100.25
2022-10-21T08:33:44.829Z,100092.45
2022-10-21T08:36:18.722Z,100092.98
2022-10-21T08:38:46.414Z,100086.73
2022-10-21T08:41:28.770Z,100084.84
2022-10-21T08:44:05.311Z,100075.44
2022-10-21T08:47:10.601Z,100067.98
2022-10-21T08:49:43.803Z,100065.19
2022-10-21T08:52:16.472Z,100059.64
2022-10-21T08:54:53.233Z,100053.21
2022-10-21T08:57:20.373Z,100046.95
2022-10-21T08:59:47.366Z,100041.55
2022-10-21T09:02:17.098Z,100039.65
2022-10-21T09:04:55.839Z,100047.33
2022-10-21T09:07:29.411Z,100045.95
2022-10-21T09:10:07.367Z,100041.60
2022-10-21T09:12:56.247Z,100046.69
2022-10-21T09:15:51.162Z,100050.71
2022-10-21T09:19:16.514Z,100057.53
2022-10-21T09:22:29.965Z,100064.71
2022-10-21T09:25:13.350Z,100060.57
2022-10-21T09:27:55.130Z,100054.50
2022-10-21T09:30:24.206Z,100058.01
2022-10-21T09:32:56.522Z,100054.55
2022-10-21T09:35:36.237Z,100055.64
2022-10-21T09:38:17.663Z,100044.66
2022-10-21T09:40:47.038Z,100042.23
2022-10-21T09:43:18.030Z,100041.04
2022-10-21T09:45:46.209Z,100044.21
2022-10-21T09:48:21.784Z,100045.09
2022-10-21T09:51:00.509Z,100047.57
2022-10-21T09:53:31.149Z,100055.98
2022-10-21T09:56:04.367Z,100050.95
2022-10-21T09:59:05.054Z,100044.85
2022-10-21T10:01:36.448Z,100040.30
2022-10-21T10:04:13.906Z,100037.17
2022-10-21T10:06:43.768Z,100041.39
2022-10-21T10:09:15.526Z,100033.89
2022-10-21T10:11:53.300Z,100033.89
2022-10-21T10:14:34.274Z,100040.05
2022-10-21T10:17:21.498Z,100039.88
2022-10-21T10:20:03.723Z,100036.58
2022-10-21T10:22:37.246Z,100032.74
2022-10-21T10:25:11.317Z,100036.42
2022-10-21T10:27:59.678Z,100035.20
2022-10-21T10:30:49.230Z,100033.98
2022-10-21T10:33:35.474Z,100031.70
2022-10-21T10:36:09.270Z,100025.92
2022-10-21T10:38:39.800Z,100023.52
2022-10-21T10:41:09.520Z,100016.86
2022-10-21T10:43:46.744Z,100011.42
2022-10-21T10:46:26.485Z,100004.06
2022-10-21T10:48:55.315Z,100005.27
2022-10-21T10:51:23.231Z,100001.73
2022-10-21T10:54:02.942Z,100000.83
2022-10-21T10:56:43.610Z,100002.38
2022-10-21T10:59:16.821Z,100004.09
2022-10-21T11:05:35.769Z,99994.26
2022-10-21T11:08:14.398Z,99983.73
2022-10-21T11:10:53.848Z,99985.61
2022-10-21T11:13:23.553Z,99989.45
2022-10-21T11:16:05.107Z,99990.34
2022-10-21T11:18:37.658Z,99992.24
2022-10-21T11:21:16.451Z,99988.39
2022-10-21T11:23:58.705Z,99984.88
2022-10-21T11:26:39.871Z,99982.25
2022-10-21T11:29:25.341Z,99975.39
2022-10-21T11:32:11.553Z,99964.15
2022-10-21T11:35:00.758Z,99965.38
2022-10-21T11:37:27.892Z,99960.80
2022-10-21T11:40:13.802Z,99957.98
2022-10-21T11:42:49.212Z,99954.84
2022-10-21T11:45:18.739Z,99953.60
2022-10-21T11:47:55.069Z,99950.42
2022-10-21T11:50:25.067Z,99948.60
2022-10-21T11:53:18.896Z,99949.25
2022-10-21T11:56:07.772Z,99942.34
2022-10-21T11:59:14.659Z,99940.23
2022-10-21T12:01:53.648Z,99935.48
2022-10-21T12:04:29.525Z,99930.39
2022-10-21T12:07:12.668Z,99926.35
2022-10-21T12:09:45.683Z,99915.66
2022-10-21T12:12:23.377Z,99911.63
2022-10-21T12:14:58.374Z,99906.52
2022-10-21T12:17:25.980Z,99900.21
2022-10-21T12:20:14.600Z,99897.90
2022-10-21T12:22:41.814Z,99902.08
2022-10-21T12:25:11.572Z,99902.77
2022-10-21T12:27:43.153Z,99899.77
2022-10-21T12:30:34.602Z,99898.35
2022-10-21T12:33:38.668Z,99893.77
2022-10-21T12:36:37.684Z,99896.02
2022-10-21T12:39:12.198Z,99893.04
2022-10-21T12:41:40.389Z,99889.16
2022-10-21T12:44:13.546Z,99882.83
2022-10-21T12:46:43.613Z,99883.85
2022-10-21T12:49:19.697Z,99890.31
2022-10-21T12:51:55.104Z,99888.58
2022-10-21T12:54:30.506Z,99884.19
2022-10-21T12:57:11.177Z,99881.02
2022-10-21T12:59:42.356Z,99875.42
2022-10-21T13:02:27.610Z,99879.27
2022-10-21T13:04:56.629Z,99880.86
2022-10-21T13:07:23.549Z,99880.66
2022-10-21T13:09:50.454Z,99871.20
2022-10-21T13:12:30.632Z,99868.92
2022-10-21T13:15:01.766Z,99861.73
2022-10-21T13:17:32.845Z,99867.67
2022-10-21T13:20:05.963Z,99869.02
2022-10-21T13:22:39.709Z,99863.21
2022-10-21T13:25:15.917Z,99858.30
2022-10-21T13:27:47.904Z,99855.16
2022-10-21T13:30:34.041Z,99849.56
2022-10-21T13:33:04.462Z,99853.25
2022-10-21T13:35:41.967Z,99857.81
2022-10-21T13:38:23.181Z,99858.55
2022-10-21T13:41:00.133Z,99864.88
2022-10-21T13:43:30.665Z,99866.31
2022-10-21T13:46:08.748Z,99870.20
2022-10-21T13:48:41.913Z,99870.94
2022-10-21T13:51:34.077Z,99874.10
2022-10-21T13:54:12.164Z,99878.13
2022-10-21T13:56:40.565Z,99876.39
2022-10-21T13:59:32.192Z,99877.12
2022-10-21T14:01:59.137Z,99874.32
2022-10-21T14:04:29.197Z,99867.66
2022-10-21T14:07:05.847Z,99862.95
2022-10-21T14:09:40.620Z,99863.67
2022-10-21T14:12:43.184Z,99859.30
2022-10-21T14:15:21.267Z,99860.77
2022-10-21T14:17:51.954Z,99856.23
2022-10-21T14:20:33.377Z,99855.20
2022-10-21T14:23:06.408Z,99850.11
2022-10-21T14:25:34.226Z,99856.77
2022-10-21T14:28:03.668Z,99856.59
2022-10-21T14:30:33.242Z,99853.97
2022-10-21T14:33:03.302Z,99855.59
2022-10-21T14:35:31.539Z,99853.69
2022-10-21T14:38:03.827Z,99853.00
2022-10-21T14:40:35.462Z,99849.88
2022-10-21T14:43:18.586Z,99854.81
2022-10-21T14:45:51.341Z,99855.86
2022-10-21T14:48:50.621Z,99850.80
2022-10-21T14:51:22.094Z,99853.95
2022-10-21T14:53:57.275Z,99857.64
2022-10-21T14:56:31.215Z,99860.30
2022-10-21T14:59:00.296Z,99859.29
2022-10-21T15:01:27.529Z,99861.06
2022-10-21T15:03:57.775Z,99860.38
2022-10-21T15:06:26.355Z,99856.89
2022-10-21T15:08:56.498Z,99859.36
2022-10-21T15:11:29.532Z,99862.51
2022-10-21T15:13:57.702Z,99856.38
2022-10-21T15:16:27.981Z,99851.67
2022-10-21T15:18:55.034Z,99852.95
2022-10-21T15:21:25.036Z,99854.01
2022-10-21T15:23:56.025Z,99854.20
2022-10-21T15:26:36.669Z,99860.00
2022-10-21T15:29:42.601Z,99857.23
2022-10-21T15:32:12.877Z,99864.27
2022-10-21T15:34:39.820Z,99860.44
2022-10-21T15:37:06.957Z,99867.45
2022-10-21T15:39:33.843Z,99867.12
2022-10-21T15:42:01.160Z,99863.47
2022-10-21T15:44:30.121Z,99868.39
2022-10-21T15:47:00.331Z,99863.67
2022-10-21T15:49:32.305Z,99861.92
2022-10-21T15:51:59.287Z,99861.41
2022-10-21T15:54:26.263Z,99864.92
2022-10-21T15:56:54.160Z,99864.75
2022-10-21T15:59:30.036Z,99862.65
2022-10-21T16:01:57.724Z,99864.23
2022-10-21T16:04:25.758Z,99860.59
2022-10-21T16:06:54.099Z,99866.73
2022-10-21T16:09:25.034Z,99868.85
2022-10-21T16:11:59.436Z,99868.85
2022-10-21T16:14:29.597Z,99867.99
2022-10-21T16:16:58.200Z,99870.29
2022-10-21T16:19:25.632Z,99874.50
2022-10-21T16:21:52.608Z,99873.11
2022-10-21T16:24:19.435Z,99873.45
2022-10-21T16:26:48.484Z,99870.48
2022-10-21T16:29:20.987Z,99871.02
2022-10-21T16:31:48.282Z,99866.98
2022-10-21T16:34:15.261Z,99866.13
2022-10-21T16:36:42.609Z,99866.11
2022-10-21T16:39:18.274Z,99864.90
2022-10-21T16:41:45.577Z,99869.98
2022-10-21T16:44:12.432Z,99866.47
2022-10-21T16:46:42.087Z,99865.95
2022-10-21T16:49:15.079Z,99865.77
2022-10-21T16:51:47.262Z,99871.73
2022-10-21T16:54:15.783Z,99867.17
2022-10-21T16:56:42.743Z,99869.80
2022-10-21T16:59:09.655Z,99867.36
2022-10-21T17:01:37.013Z,99866.32
2022-10-21T17:04:04.523Z,99861.25
2022-10-21T17:06:31.492Z,99867.55
2022-10-21T17:08:58.431Z,99860.91
2022-10-21T17:11:35.613Z,99862.48
2022-10-21T17:14:05.088Z,99864.75
2022-10-21T17:16:32.282Z,99865.29
2022-10-21T17:18:59.784Z,99862.13
2022-10-21T17:21:29.681Z,99855.48
2022-10-21T17:23:57.061Z,99858.98
2022-10-21T17:26:24.334Z,99853.41
2022-10-21T17:28:51.554Z,99853.55
2022-10-21T17:31:21.010Z,99858.11
2022-10-21T17:33:49.254Z,99853.20
2022-10-21T17:36:17.170Z,99858.12
2022-10-21T17:38:44.953Z,99854.28
2022-10-21T17:41:14.845Z,99854.27
2022-10-21T17:43:41.990Z,99856.20
2022-10-21T17:46:16.205Z,99852.70
2022-10-21T17:48:43.202Z,99851.81
2022-10-21T17:51:10.127Z,99846.59
2022-10-21T17:53:36.975Z,99847.11
2022-10-21T17:56:06.404Z,99843.44
2022-10-21T17:58:34.349Z,99842.72
2022-10-21T18:01:09.058Z,99837.81
2022-10-21T18:03:36.800Z,99835.02
2022-10-21T18:06:06.989Z,99830.98
2022-10-21T18:08:34.586Z,99828.19
2022-10-21T18:11:02.452Z,99822.09
2022-10-21T18:13:30.587Z,99821.02
2022-10-21T18:16:06.540Z,99817.16
2022-10-21T18:18:34.102Z,99809.63
2022-10-21T18:21:27.495Z,99808.23
2022-10-21T18:23:55.034Z,99806.83
2022-10-21T18:26:29.122Z,99802.62
2022-10-21T18:29:00.423Z,99799.46
2022-10-21T18:31:32.713Z,99795.10
2022-10-21T18:34:04.480Z,99793.86
2022-10-21T18:36:32.409Z,99792.27
2022-10-21T18:38:59.907Z,99790.17
2022-10-21T18:41:26.959Z,99792.62
2022-10-21T18:44:00.791Z,99789.13
2022-10-21T18:46:31.591Z,99796.14
2022-10-21T18:48:59.144Z,99796.49
2022-10-21T18:51:26.516Z,99797.71
2022-10-21T18:53:53.593Z,99801.91
2022-10-21T18:56:22.781Z,99795.96
2022-10-21T18:58:51.259Z,99799.45
2022-10-21T19:01:19.969Z,99795.95
2022-10-21T19:03:50.286Z,99795.60
2022-10-21T19:06:45.614Z,99794.89
2022-10-21T19:09:16.481Z,99797.00
2022-10-21T19:11:45.025Z,99802.23
2022-10-21T19:14:15.635Z,99802.41
2022-10-21T19:16:44.251Z,99806.76
2022-10-21T19:19:13.166Z,99808.85
2022-10-21T19:21:40.232Z,99816.02
2022-10-21T19:24:08.234Z,99818.84
2022-10-21T19:26:37.448Z,99820.22
2022-10-21T19:29:24.093Z,99821.64
2022-10-21T19:31:51.557Z,99823.73
2022-10-21T19:34:22.239Z,99818.30
2022-10-21T19:36:49.505Z,99820.38
2022-10-21T19:39:16.677Z,99821.95
2022-10-21T19:41:43.987Z,99821.77
2022-10-21T19:44:11.222Z,99822.83
2022-10-21T19:46:58.351Z,99826.16
2022-10-21T19:49:26.175Z,99830.35
2022-10-21T19:51:56.117Z,99830.88
2022-10-21T19:54:23.012Z,99832.97
2022-10-21T19:56:50.867Z,99830.16
2022-10-21T20:01:49.684Z,99832.07
2022-10-21T20:04:16.612Z,99832.07
2022-10-21T20:06:43.918Z,99836.44
2022-10-21T20:09:12.974Z,99843.45
2022-10-21T20:11:40.878Z,99845.35
2022-10-21T20:14:08.295Z,99849.19
2022-10-21T20:16:38.250Z,99843.05
2022-10-21T20:19:05.842Z,99841.13
2022-10-21T20:21:34.227Z,99841.65
2022-10-21T20:24:01.327Z,99842.53
2022-10-21T20:29:07.843Z,99840.42
2022-10-21T20:31:34.953Z,99839.36
2022-10-21T20:34:02.382Z,99841.11
2022-10-21T20:36:34.604Z,99837.77
2022-10-21T20:39:02.657Z,99834.42
2022-10-21T20:41:34.077Z,99831.83
2022-10-21T20:44:02.418Z,99833.21
2022-10-21T20:46:34.345Z,99829.89
2022-10-21T20:49:02.501Z,99825.01
2022-10-21T20:51:29.698Z,99825.53
2022-10-21T20:53:59.624Z,99825.17
2022-10-21T20:56:27.621Z,99824.81
2022-10-21T20:58:54.668Z,99814.31
2022-10-21T21:01:24.910Z,99816.92
2022-10-21T21:03:57.648Z,99815.00
2022-10-21T21:06:25.581Z,99810.29
2022-10-21T21:09:15.083Z,99808.36
2022-10-21T21:11:40.307Z,99805.73
2022-10-21T21:14:09.443Z,99801.35
2022-10-21T21:16:36.666Z,99802.91
2022-10-21T21:19:06.049Z,99805.17
2022-10-21T21:21:34.899Z,99805.34
2022-10-21T21:24:03.029Z,99803.77
2022-10-21T21:26:32.195Z,99802.53
2022-10-21T21:29:00.097Z,99800.60
2022-10-21T21:31:29.058Z,99802.17
2022-10-21T21:33:56.499Z,99796.20
2022-10-21T21:36:24.249Z,99797.07
2022-10-21T21:38:53.109Z,99797.58
2022-10-21T21:41:21.471Z,99795.30
2022-10-21T21:43:50.640Z,99790.59
2022-10-21T21:46:24.803Z,99791.64
2022-10-21T21:48:56.026Z,99785.00
2022-10-21T21:51:27.538Z,99783.27
2022-10-21T21:53:55.822Z,99776.27
2022-10-21T21:56:23.886Z,99772.41
2022-10-21T21:58:54.191Z,99771.34
2022-10-21T22:01:25.009Z,99768.02
2022-10-21T22:03:52.785Z,99766.80
2022-10-21T22:06:22.199Z,99760.69
2022-10-21T22:08:49.621Z,99758.08
2022-10-21T22:11:20.618Z,99757.55
2022-10-21T22:13:47.922Z,99760.33
2022-10-21T22:16:16.186Z,99755.96
2022-10-21T22:18:43.447Z,99759.27
2022-10-21T22:21:14.724Z,99757.52
2022-10-21T22:23:42.255Z,99758.57
2022-10-21T22:26:10.643Z,99763.48
2022-10-21T22:28:38.443Z,99765.59
2022-10-21T22:31:11.468Z,99767.66
2022-10-21T22:33:39.821Z,99767.48
2022-10-21T22:36:07.472Z,99766.78
2022-10-21T22:38:34.526Z,99767.81
2022-10-21T22:41:05.193Z,99762.39
2022-10-21T22:43:34.241Z,99762.40
2022-10-21T22:46:09.758Z,99764.68
2022-10-21T22:48:48.380Z,99760.84
2022-10-21T22:51:15.323Z,99762.76
2022-10-21T22:53:42.197Z,99762.38
2022-10-21T22:56:09.180Z,99763.08
2022-10-21T22:58:36.090Z,99760.27
2022-10-21T23:01:08.535Z,99754.85
2022-10-21T23:03:36.405Z,99757.47
2022-10-21T23:06:03.555Z,99760.10
2022-10-21T23:08:30.479Z,99762.39
2022-10-21T23:11:00.192Z,99760.98
2022-10-21T23:13:27.057Z,99760.30
2022-10-21T23:15:53.928Z,99758.70
2022-10-21T23:18:23.158Z,99758.52
2022-10-21T23:20:50.012Z,99753.42
2022-10-21T23:23:16.942Z,99750.45
2022-10-21T23:25:43.884Z,99747.48
2022-10-21T23:28:10.869Z,99744.50
2022-10-21T23:30:37.962Z,99736.27
2022-10-21T23:33:04.888Z,99729.96
2022-10-21T23:35:32.366Z,99732.41
2022-10-21T23:37:59.463Z,99734.50
2022-10-21T23:40:27.340Z,99733.45
2022-10-21T23:42:54.636Z,99730.48
2022-10-21T23:45:21.666Z,99731.55
2022-10-21T23:47:48.881Z,99736.64
2022-10-21T23:50:16.426Z,99734.71
2022-10-21T23:52:43.463Z,99729.80
2022-10-21T23:55:10.315Z,99724.72
2022-10-21T23:57:37.324Z,99725.76
